Time;durP1;ratioP1;P1;durP2;ratioP2;P2;SDS_P1;SDS_P2;PMS_P1;PMS_P2;Temp;Humidity;BMP_temperature;BMP_pressure;BME280_temperature;BME280_humidity;BME280_pressure;Samples;Min_cycle;Max_cycle;Signal;HPM_P1;HPM_P2
2021/09/29 00:00:00;;;;;;;21.70;17.83;;;;;;;;;;4981490;28;20424;-85
2021/09/29 00:02:27;;;;;;;22.90;18.15;;;;;;;;;;4983218;28;20440;-86
2021/09/29 00:04:53;;;;;;;23.30;18.20;;;;;;;;;;4981634;28;21782;-86
2021/09/29 00:07:20;;;;;;;23.90;18.85;;;;;;;;;;4981997;28;20422;-86
2021/09/29 00:09:47;;;;;;;20.52;17.92;;;;;;;;;;4982337;28;20438;-86
2021/09/29 00:12:15;;;;;;;21.08;17.10;;;;;;;;;;4983010;28;20914;-87
2021/09/29 00:14:42;;;;;;;23.35;18.27;;;;;;;;;;4982451;28;21255;-86
2021/09/29 00:17:09;;;;;;;23.50;18.25;;;;;;;;;;4982167;28;20418;-86
2021/09/29 00:19:36;;;;;;;23.13;18.60;;;;;;;;;;4981759;28;20620;-86
2021/09/29 00:22:03;;;;;;;22.67;17.88;;;;;;;;;;4982169;28;20424;-86
2021/09/29 00:24:30;;;;;;;22.95;18.33;;;;;;;;;;4981970;28;20434;-85
2021/09/29 00:26:57;;;;;;;24.05;18.73;;;;;;;;;;4981285;28;20428;-86
2021/09/29 00:29:26;;;;;;;21.77;18.95;;;;;;;;;;4982751;28;20445;-86
2021/09/29 00:31:53;;;;;;;23.05;17.73;;;;;;;;;;4979996;28;20434;-86
2021/09/29 00:34:28;;;;;;;21.00;17.45;;;;;;;;;;4982075;28;20435;-87
2021/09/29 00:36:56;;;;;;;22.02;17.10;;;;;;;;;;4981867;28;20433;-86
2021/09/29 00:39:22;;;;;;;22.93;17.20;;;;;;;;;;4981807;28;20446;-86
2021/09/29 00:41:49;;;;;;;22.77;17.13;;;;;;;;;;4981691;28;20446;-86
2021/09/29 00:44:16;;;;;;;19.93;16.40;;;;;;;;;;4982137;28;20430;-86
2021/09/29 00:46:45;;;;;;;18.65;16.45;;;;;;;;;;4980890;28;20919;-86
2021/09/29 00:49:12;;;;;;;20.77;16.77;;;;;;;;;;4982406;28;20435;-86
2021/09/29 00:51:39;;;;;;;20.50;16.52;;;;;;;;;;4980998;28;20431;-86
2021/09/29 00:54:07;;;;;;;20.57;16.50;;;;;;;;;;4982312;28;20434;-86
2021/09/29 00:56:34;;;;;;;20.95;16.40;;;;;;;;;;4981317;28;20433;-85
2021/09/29 00:59:01;;;;;;;19.27;15.43;;;;;;;;;;4982037;28;20460;-86
2021/09/29 01:01:28;;;;;;;19.38;15.57;;;;;;;;;;4981314;28;20432;-86
2021/09/29 01:03:57;;;;;;;18.98;16.15;;;;;;;;;;4982016;28;20427;-86
2021/09/29 01:06:28;;;;;;;20.57;16.50;;;;;;;;;;4981592;28;21259;-86
2021/09/29 01:09:04;;;;;;;21.50;17.48;;;;;;;;;;4981627;28;20439;-85
2021/09/29 01:11:39;;;;;;;20.88;16.80;;;;;;;;;;4978865;28;20996;-86
2021/09/29 01:14:13;;;;;;;21.43;17.87;;;;;;;;;;4980052;28;20438;-86
2021/09/29 01:16:41;;;;;;;20.00;16.63;;;;;;;;;;4981703;28;20450;-86
2021/09/29 01:19:21;;;;;;;20.33;16.00;;;;;;;;;;4980886;28;20423;-86
2021/09/29 01:21:51;;;;;;;20.83;16.33;;;;;;;;;;4980630;28;20431;-86
2021/09/29 01:24:25;;;;;;;20.38;16.13;;;;;;;;;;4982097;28;20423;-86
2021/09/29 01:26:54;;;;;;;18.90;15.95;;;;;;;;;;4982043;28;20419;-86
2021/09/29 01:29:24;;;;;;;18.98;16.23;;;;;;;;;;4981919;28;20446;-86
2021/09/29 01:31:53;;;;;;;19.65;16.13;;;;;;;;;;4981377;28;20440;-86
2021/09/29 01:34:21;;;;;;;19.48;16.33;;;;;;;;;;4982614;28;20426;-86
2021/09/29 01:36:48;;;;;;;18.67;15.80;;;;;;;;;;4993479;28;20839;-85
2021/09/29 01:39:16;;;;;;;20.17;16.40;;;;;;;;;;4982823;28;20424;-87
2021/09/29 01:41:45;;;;;;;21.35;17.38;;;;;;;;;;4980765;28;20557;-86
2021/09/29 01:44:14;;;;;;;22.65;17.58;;;;;;;;;;4982405;28;20527;-85
2021/09/29 01:46:41;;;;;;;23.77;18.37;;;;;;;;;;4984738;28;20527;-86
2021/09/29 01:49:12;;;;;;;22.83;18.13;;;;;;;;;;4994320;28;20430;-87
2021/09/29 01:51:45;;;;;;;22.02;17.17;;;;;;;;;;4993647;28;20580;-86
2021/09/29 01:54:16;;;;;;;21.30;17.60;;;;;;;;;;4995892;28;20414;-85
2021/09/29 01:56:43;;;;;;;20.83;16.75;;;;;;;;;;5007122;28;20427;-86
2021/09/29 01:59:11;;;;;;;20.92;16.85;;;;;;;;;;4988418;28;20426;-87
2021/09/29 02:01:41;;;;;;;19.08;16.15;;;;;;;;;;4981037;28;20438;-87
2021/09/29 02:04:10;;;;;;;18.90;15.63;;;;;;;;;;4979905;28;20894;-85
2021/09/29 02:06:49;;;;;;;19.65;15.25;;;;;;;;;;4979947;28;20784;-87
2021/09/29 02:09:16;;;;;;;19.90;15.07;;;;;;;;;;4980664;28;20607;-86
2021/09/29 02:11:44;;;;;;;19.15;15.32;;;;;;;;;;4980060;28;20444;-87
2021/09/29 02:14:11;;;;;;;20.17;15.35;;;;;;;;;;4980548;28;20431;-87
2021/09/29 02:16:40;;;;;;;18.75;15.55;;;;;;;;;;4980821;28;20433;-86
2021/09/29 02:19:07;;;;;;;19.45;14.90;;;;;;;;;;4980348;28;21933;-85
2021/09/29 02:21:34;;;;;;;17.67;15.07;;;;;;;;;;4994044;28;20785;-86
2021/09/29 02:24:01;;;;;;;18.25;14.73;;;;;;;;;;5005602;28;20394;-86
2021/09/29 02:26:28;;;;;;;18.65;15.20;;;;;;;;;;5007747;28;20493;-86
2021/09/29 02:28:55;;;;;;;18.67;15.45;;;;;;;;;;5005431;28;20411;-86
2021/09/29 02:31:21;;;;;;;17.48;15.27;;;;;;;;;;5005335;28;20411;-86
2021/09/29 02:33:50;;;;;;;17.63;14.80;;;;;;;;;;5006014;28;20899;-87
2021/09/29 02:36:17;;;;;;;17.02;15.05;;;;;;;;;;5006229;28;20411;-85
2021/09/29 02:38:44;;;;;;;17.05;14.95;;;;;;;;;;5002293;28;21028;-87
2021/09/29 02:41:11;;;;;;;17.50;14.65;;;;;;;;;;5010201;28;20414;-86
2021/09/29 02:43:38;;;;;;;17.33;14.30;;;;;;;;;;5005210;28;20490;-85
2021/09/29 02:46:05;;;;;;;17.10;14.40;;;;;;;;;;4997610;28;20885;-86
2021/09/29 02:48:32;;;;;;;16.73;14.73;;;;;;;;;;4997369;28;20414;-86
2021/09/29 02:51:01;;;;;;;17.90;14.45;;;;;;;;;;5004830;28;20398;-85
2021/09/29 02:53:29;;;;;;;18.30;14.75;;;;;;;;;;5000109;28;20417;-86
2021/09/29 02:55:56;;;;;;;16.95;14.52;;;;;;;;;;5006137;28;20463;-86
2021/09/29 02:58:24;;;;;;;17.23;13.85;;;;;;;;;;5005412;28;20457;-86
2021/09/29 03:00:51;;;;;;;17.40;14.13;;;;;;;;;;5003716;28;21036;-87
2021/09/29 03:03:18;;;;;;;15.68;13.98;;;;;;;;;;5002190;28;20411;-86
2021/09/29 03:05:45;;;;;;;17.65;14.45;;;;;;;;;;5005307;28;20407;-86
2021/09/29 03:08:14;;;;;;;17.73;14.52;;;;;;;;;;5000802;28;20407;-86
2021/09/29 03:10:41;;;;;;;17.08;14.10;;;;;;;;;;5001678;28;20410;-87
2021/09/29 03:13:08;;;;;;;17.15;14.30;;;;;;;;;;4992270;28;20400;-86
2021/09/29 03:15:36;;;;;;;18.35;14.25;;;;;;;;;;5001841;28;20418;-86
2021/09/29 03:18:03;;;;;;;16.95;14.02;;;;;;;;;;5016851;28;20406;-86
2021/09/29 03:20:30;;;;;;;17.38;13.85;;;;;;;;;;5005918;28;20442;-86
2021/09/29 03:22:58;;;;;;;17.35;13.93;;;;;;;;;;5004225;28;20403;-86
2021/09/29 03:25:27;;;;;;;17.13;13.80;;;;;;;;;;5012740;28;20889;-87
2021/09/29 03:27:54;;;;;;;16.23;14.18;;;;;;;;;;5004552;28;20410;-86
2021/09/29 03:30:20;;;;;;;16.20;13.55;;;;;;;;;;5004019;28;20411;-86
2021/09/29 03:32:47;;;;;;;19.33;14.02;;;;;;;;;;5003949;28;20413;-86
2021/09/29 03:35:15;;;;;;;16.70;13.63;;;;;;;;;;5004923;28;20418;-86
2021/09/29 03:37:43;;;;;;;17.43;13.90;;;;;;;;;;4993540;28;20479;-87
2021/09/29 03:40:12;;;;;;;16.23;13.32;;;;;;;;;;4992550;28;20406;-86
2021/09/29 03:42:41;;;;;;;15.63;13.50;;;;;;;;;;4994462;28;20432;-86
2021/09/29 03:45:09;;;;;;;16.27;13.40;;;;;;;;;;5003335;28;20439;-86
2021/09/29 03:47:36;;;;;;;17.42;13.57;;;;;;;;;;5005161;28;20494;-86
2021/09/29 03:50:04;;;;;;;15.50;13.35;;;;;;;;;;5002090;28;20413;-86
2021/09/29 03:52:31;;;;;;;16.75;13.27;;;;;;;;;;5004450;28;20891;-86
2021/09/29 03:54:58;;;;;;;15.35;13.13;;;;;;;;;;5002028;28;20399;-86
2021/09/29 03:57:24;;;;;;;16.98;13.32;;;;;;;;;;5003705;28;20422;-87
2021/09/29 03:59:53;;;;;;;15.82;12.82;;;;;;;;;;5004350;28;20403;-86
2021/09/29 04:02:19;;;;;;;16.20;13.40;;;;;;;;;;5003974;28;20796;-87
2021/09/29 04:04:46;;;;;;;17.83;13.02;;;;;;;;;;4997885;28;20428;-86
2021/09/29 04:07:13;;;;;;;15.57;13.57;;;;;;;;;;5000766;28;20430;-87
2021/09/29 04:09:40;;;;;;;16.92;13.70;;;;;;;;;;4996482;28;20416;-86
2021/09/29 04:12:08;;;;;;;15.60;12.48;;;;;;;;;;5000932;28;20407;-87
2021/09/29 04:14:34;;;;;;;16.38;13.15;;;;;;;;;;5001213;28;20881;-86
2021/09/29 04:17:03;;;;;;;17.92;13.90;;;;;;;;;;4994965;28;20417;-87
2021/09/29 04:19:30;;;;;;;16.97;13.27;;;;;;;;;;4997507;28;20468;-86
2021/09/29 04:21:57;;;;;;;15.52;13.07;;;;;;;;;;4998863;28;20426;-86
2021/09/29 04:24:24;;;;;;;16.95;13.40;;;;;;;;;;4998085;28;20402;-86
2021/09/29 04:26:51;;;;;;;16.45;12.95;;;;;;;;;;4997982;28;20414;-86
2021/09/29 04:29:18;;;;;;;15.57;13.15;;;;;;;;;;4998398;28;20401;-86
2021/09/29 04:31:45;;;;;;;16.30;12.80;;;;;;;;;;4996985;28;20414;-86
2021/09/29 04:34:13;;;;;;;19.15;12.93;;;;;;;;;;4999580;28;20403;-87
2021/09/29 04:36:41;;;;;;;17.73;12.82;;;;;;;;;;4997862;28;20422;-86
2021/09/29 04:39:07;;;;;;;15.87;12.23;;;;;;;;;;4991838;28;20410;-86
2021/09/29 04:41:34;;;;;;;16.60;12.63;;;;;;;;;;4997065;28;20425;-85
2021/09/29 04:44:01;;;;;;;16.88;13.10;;;;;;;;;;4994572;28;20395;-86
2021/09/29 04:46:28;;;;;;;18.15;13.27;;;;;;;;;;4997707;28;20415;-85
2021/09/29 04:48:55;;;;;;;18.55;13.52;;;;;;;;;;4999921;28;20411;-87
2021/09/29 04:51:23;;;;;;;16.65;13.10;;;;;;;;;;5005238;28;20923;-86
2021/09/29 04:53:50;;;;;;;17.73;13.75;;;;;;;;;;5005314;28;20407;-85
2021/09/29 04:56:18;;;;;;;17.40;12.85;;;;;;;;;;5003272;28;20399;-87
2021/09/29 04:58:45;;;;;;;16.02;12.25;;;;;;;;;;4994446;28;20420;-86
2021/09/29 05:01:12;;;;;;;14.87;12.27;;;;;;;;;;5000926;28;20401;-86
2021/09/29 05:03:39;;;;;;;15.50;12.25;;;;;;;;;;5002786;28;20412;-86
2021/09/29 05:06:06;;;;;;;15.70;11.75;;;;;;;;;;5008587;28;20403;-86
2021/09/29 05:08:35;;;;;;;15.15;11.93;;;;;;;;;;5006762;28;20418;-84
2021/09/29 05:11:05;;;;;;;14.82;11.48;;;;;;;;;;4998929;28;20418;-85
2021/09/29 05:13:33;;;;;;;14.60;12.60;;;;;;;;;;5003460;28;20405;-85
2021/09/29 05:16:01;;;;;;;16.20;12.40;;;;;;;;;;5006123;28;20411;-86
2021/09/29 05:18:28;;;;;;;15.23;12.10;;;;;;;;;;5004063;28;20415;-87
2021/09/29 05:20:56;;;;;;;16.60;12.27;;;;;;;;;;5001326;28;20492;-87
2021/09/29 05:23:23;;;;;;;16.25;12.77;;;;;;;;;;4997079;28;20784;-88
2021/09/29 05:25:52;;;;;;;20.15;13.15;;;;;;;;;;4995466;28;20916;-86
2021/09/29 05:28:23;;;;;;;17.33;12.85;;;;;;;;;;4995525;28;20444;-86
2021/09/29 05:30:50;;;;;;;14.45;12.38;;;;;;;;;;5000604;28;20754;-86
2021/09/29 05:33:17;;;;;;;17.20;12.10;;;;;;;;;;5023933;28;20445;-87
2021/09/29 05:35:44;;;;;;;16.67;12.07;;;;;;;;;;5019614;28;20391;-86
2021/09/29 05:38:11;;;;;;;14.27;12.32;;;;;;;;;;5013863;28;20407;-88
2021/09/29 05:40:38;;;;;;;15.65;11.70;;;;;;;;;;5001346;28;20404;-85
2021/09/29 05:43:06;;;;;;;15.50;11.52;;;;;;;;;;5002350;28;20419;-86
2021/09/29 05:45:33;;;;;;;13.33;11.00;;;;;;;;;;4997812;28;20409;-87
2021/09/29 05:48:00;;;;;;;13.90;11.27;;;;;;;;;;4996884;28;20409;-87
2021/09/29 05:50:27;;;;;;;13.20;10.88;;;;;;;;;;4997376;28;20421;-85
2021/09/29 05:52:54;;;;;;;13.57;10.20;;;;;;;;;;5003844;28;20415;-84
2021/09/29 05:55:27;;;;;;;12.00;10.70;;;;;;;;;;5002160;28;20399;-95
2021/09/29 05:57:54;;;;;;;12.80;10.70;;;;;;;;;;4999048;28;20896;-87
2021/09/29 06:00:22;;;;;;;14.67;10.87;;;;;;;;;;5003786;28;20403;-86
2021/09/29 06:02:49;;;;;;;15.05;11.05;;;;;;;;;;5001096;28;20431;-87
2021/09/29 06:05:17;;;;;;;14.88;11.25;;;;;;;;;;4998916;28;20407;-86
2021/09/29 06:07:45;;;;;;;13.30;11.45;;;;;;;;;;5002359;28;20982;-87
2021/09/29 06:10:12;;;;;;;14.37;11.23;;;;;;;;;;4997842;28;20400;-86
2021/09/29 06:12:39;;;;;;;15.13;11.13;;;;;;;;;;5005442;28;20411;-86
2021/09/29 06:15:07;;;;;;;14.43;11.23;;;;;;;;;;5001886;28;21407;-86
2021/09/29 06:17:40;;;;;;;13.90;11.43;;;;;;;;;;5005715;28;20407;-86
2021/09/29 06:20:08;;;;;;;14.45;10.95;;;;;;;;;;4994936;28;20420;-86
2021/09/29 06:22:36;;;;;;;14.07;11.30;;;;;;;;;;5005515;28;20431;-87
2021/09/29 06:25:03;;;;;;;15.20;12.05;;;;;;;;;;5002570;28;20409;-86
2021/09/29 06:27:30;;;;;;;13.98;11.20;;;;;;;;;;5002119;28;20435;-86
2021/09/29 06:29:57;;;;;;;14.90;11.60;;;;;;;;;;5002564;28;20414;-86
2021/09/29 06:32:23;;;;;;;14.95;11.73;;;;;;;;;;5001497;28;20406;-86
2021/09/29 06:34:52;;;;;;;15.02;11.27;;;;;;;;;;5001673;28;20414;-86
2021/09/29 06:37:19;;;;;;;14.77;11.07;;;;;;;;;;4995441;28;20761;-87
2021/09/29 06:39:45;;;;;;;13.40;10.90;;;;;;;;;;4998094;28;20399;-85
2021/09/29 06:42:12;;;;;;;15.20;10.77;;;;;;;;;;5003963;28;20426;-86
2021/09/29 06:44:39;;;;;;;15.07;10.98;;;;;;;;;;5001904;28;20426;-87
2021/09/29 06:47:07;;;;;;;14.02;10.93;;;;;;;;;;5000696;28;20411;-87
2021/09/29 06:49:34;;;;;;;13.70;10.80;;;;;;;;;;4999553;28;20503;-87
2021/09/29 06:52:02;;;;;;;13.65;11.10;;;;;;;;;;5000594;28;20407;-87
2021/09/29 06:54:29;;;;;;;14.20;10.45;;;;;;;;;;5001341;28;20403;-87
2021/09/29 06:56:56;;;;;;;14.10;10.60;;;;;;;;;;5000679;28;20411;-87
2021/09/29 06:59:23;;;;;;;15.55;9.90;;;;;;;;;;5005238;28;20410;-86
2021/09/29 07:01:50;;;;;;;12.77;10.00;;;;;;;;;;5001014;28;20403;-86
2021/09/29 07:04:16;;;;;;;17.02;9.68;;;;;;;;;;5003067;28;20526;-87
2021/09/29 07:06:43;;;;;;;14.73;9.98;;;;;;;;;;5000105;28;20414;-87
2021/09/29 07:09:12;;;;;;;14.90;10.05;;;;;;;;;;5000663;28;20451;-88
2021/09/29 07:11:39;;;;;;;14.80;10.38;;;;;;;;;;5002263;28;20477;-88
2021/09/29 07:14:05;;;;;;;11.40;10.20;;;;;;;;;;5001676;28;20417;-86
2021/09/29 07:16:32;;;;;;;13.77;10.73;;;;;;;;;;5001648;28;20409;-87
2021/09/29 07:19:02;;;;;;;14.43;11.65;;;;;;;;;;5000870;28;20766;-87
2021/09/29 07:21:30;;;;;;;16.33;11.50;;;;;;;;;;5002651;28;20418;-87
2021/09/29 07:23:57;;;;;;;14.20;11.60;;;;;;;;;;5001925;28;20427;-87
2021/09/29 07:26:25;;;;;;;16.33;11.45;;;;;;;;;;5006720;28;20455;-87
2021/09/29 07:28:52;;;;;;;16.65;12.13;;;;;;;;;;5001313;28;20407;-87
2021/09/29 07:31:19;;;;;;;15.93;11.93;;;;;;;;;;5004050;28;20771;-87
2021/09/29 07:33:47;;;;;;;15.07;12.00;;;;;;;;;;5002551;28;20403;-87
2021/09/29 07:36:14;;;;;;;16.90;12.23;;;;;;;;;;4999389;28;20420;-88
2021/09/29 07:38:41;;;;;;;14.07;12.60;;;;;;;;;;4997312;28;20418;-87
2021/09/29 07:41:08;;;;;;;16.08;12.00;;;;;;;;;;5002946;28;20407;-88
2021/09/29 07:43:36;;;;;;;16.20;12.52;;;;;;;;;;4999519;28;20431;-87
2021/09/29 07:46:04;;;;;;;18.20;12.90;;;;;;;;;;4997708;28;20771;-88
2021/09/29 07:48:31;;;;;;;16.35;12.90;;;;;;;;;;4999160;28;20411;-87
2021/09/29 07:50:58;;;;;;;18.87;13.93;;;;;;;;;;4996799;28;20774;-87
2021/09/29 07:53:26;;;;;;;18.38;13.70;;;;;;;;;;5002142;28;20901;-87
2021/09/29 07:55:53;;;;;;;18.30;14.02;;;;;;;;;;4995666;28;20504;-87
2021/09/29 07:58:20;;;;;;;17.88;12.93;;;;;;;;;;4997237;28;20455;-87
2021/09/29 08:00:48;;;;;;;15.45;12.73;;;;;;;;;;4996817;28;20424;-87
2021/09/29 08:03:15;;;;;;;17.38;13.13;;;;;;;;;;4998667;28;20427;-87
2021/09/29 08:05:42;;;;;;;16.40;12.73;;;;;;;;;;4999323;28;20418;-87
2021/09/29 08:08:09;;;;;;;17.10;13.63;;;;;;;;;;4998034;28;20403;-87
2021/09/29 08:10:36;;;;;;;16.92;13.30;;;;;;;;;;5000473;28;20415;-87
2021/09/29 08:13:03;;;;;;;26.55;15.65;;;;;;;;;;4998896;28;20771;-86
2021/09/29 08:15:30;;;;;;;19.35;14.30;;;;;;;;;;4994035;28;20411;-87
2021/09/29 08:17:58;;;;;;;16.83;14.05;;;;;;;;;;5000407;28;20414;-87
2021/09/29 08:20:28;;;;;;;17.73;14.73;;;;;;;;;;4995498;28;20779;-87
2021/09/29 08:22:59;;;;;;;19.77;14.82;;;;;;;;;;5000853;28;20414;-87
2021/09/29 08:28:24;;;;;;;21.52;15.57;;;;;;;;;;4988797;28;20506;-86
2021/09/29 08:30:58;;;;;;;21.25;15.00;;;;;;;;;;4998531;28;20769;-87
2021/09/29 08:33:47;;;;;;;22.30;15.55;;;;;;;;;;5003974;28;20465;-87
2021/09/29 08:36:24;;;;;;;25.17;16.13;;;;;;;;;;5003193;28;20434;-87
2021/09/29 08:38:54;;;;;;;22.35;16.42;;;;;;;;;;5002085;28;20415;-86
2021/09/29 08:41:43;;;;;;;20.85;15.32;;;;;;;;;;5006162;28;20414;-87
2021/09/29 08:44:14;;;;;;;21.35;17.08;;;;;;;;;;5001636;28;20428;-86
2021/09/29 08:49:39;;;;;;;21.33;16.67;;;;;;;;;;4999783;28;20948;-87
2021/09/29 08:55:30;;;;;;;22.10;16.40;;;;;;;;;;4998921;28;20466;-86
2021/09/29 08:58:16;;;;;;;22.00;16.50;;;;;;;;;;4998391;28;20416;-88
2021/09/29 09:15:09;;;;;;;23.98;16.73;;;;;;;;;;5001628;28;20394;-87
2021/09/29 09:17:38;;;;;;;21.05;16.20;;;;;;;;;;4999913;28;20887;-87
2021/09/29 09:20:10;;;;;;;21.67;14.80;;;;;;;;;;4997881;28;20411;-87
2021/09/29 09:22:38;;;;;;;19.75;15.68;;;;;;;;;;5004953;28;20422;-87
2021/09/29 09:25:07;;;;;;;22.87;15.60;;;;;;;;;;5001814;28;20422;-87
2021/09/29 09:27:43;;;;;;;20.23;14.65;;;;;;;;;;5002498;28;20408;-86
2021/09/29 09:30:11;;;;;;;21.02;15.25;;;;;;;;;;5002647;28;20415;-86
2021/09/29 09:32:44;;;;;;;20.83;15.43;;;;;;;;;;5004627;28;20482;-86
2021/09/29 09:35:13;;;;;;;19.45;14.90;;;;;;;;;;5004800;28;20418;-87
2021/09/29 09:37:44;;;;;;;22.15;15.95;;;;;;;;;;5005118;28;20407;-87
2021/09/29 09:40:15;;;;;;;21.13;15.65;;;;;;;;;;5002147;28;20418;-87
2021/09/29 09:42:44;;;;;;;19.30;14.38;;;;;;;;;;5001011;28;20453;-86
2021/09/29 09:45:12;;;;;;;20.83;14.13;;;;;;;;;;5003850;28;20403;-87
2021/09/29 09:47:42;;;;;;;19.25;13.77;;;;;;;;;;5002806;28;20820;-87
2021/09/29 09:50:10;;;;;;;21.55;14.52;;;;;;;;;;4998165;28;20395;-88
2021/09/29 09:52:41;;;;;;;22.67;14.48;;;;;;;;;;4999564;28;20422;-87
2021/09/29 09:55:12;;;;;;;21.10;14.48;;;;;;;;;;5000683;28;20422;-87
2021/09/29 09:57:41;;;;;;;18.05;13.98;;;;;;;;;;4998827;28;20407;-87
2021/09/29 10:00:10;;;;;;;20.30;14.98;;;;;;;;;;5002907;28;20410;-88
2021/09/29 10:02:42;;;;;;;19.37;13.90;;;;;;;;;;5000343;28;20945;-86
2021/09/29 10:05:10;;;;;;;20.30;13.43;;;;;;;;;;5002740;28;20407;-87
2021/09/29 10:07:37;;;;;;;20.23;14.25;;;;;;;;;;5002282;28;20415;-87
2021/09/29 10:10:09;;;;;;;22.30;14.88;;;;;;;;;;5004985;28;21141;-87
2021/09/29 10:12:57;;;;;;;15.68;11.88;;;;;;;;;;5010469;28;20407;-87
2021/09/29 10:24:04;;;;;;;15.20;10.95;;;;;;;;;;5005393;28;20418;-86
2021/09/29 10:26:30;;;;;;;13.27;9.82;;;;;;;;;;5002062;28;20403;-87
2021/09/29 10:29:06;;;;;;;12.07;9.13;;;;;;;;;;5004632;28;20402;-87
2021/09/29 10:32:01;;;;;;;10.23;6.90;;;;;;;;;;5002854;28;21170;-86
2021/09/29 10:34:34;;;;;;;12.10;8.32;;;;;;;;;;5000813;28;20407;-87
2021/09/29 10:37:36;;;;;;;10.67;6.77;;;;;;;;;;4999669;28;20509;-87
2021/09/29 10:43:00;;;;;;;10.25;7.50;;;;;;;;;;4985838;28;20419;-86
2021/09/29 11:28:01;;;;;;;5.32;4.32;;;;;;;;;;4990530;28;20414;-87
2021/09/29 11:30:32;;;;;;;4.70;4.20;;;;;;;;;;4996836;28;20534;-87
2021/09/29 11:33:02;;;;;;;4.80;4.07;;;;;;;;;;4994867;28;20815;-87
2021/09/29 11:38:37;;;;;;;4.22;3.63;;;;;;;;;;4995670;28;20748;-87
2021/09/29 11:50:00;;;;;;;4.38;3.97;;;;;;;;;;4981193;28;20541;-85
2021/09/29 12:09:11;;;;;;;3.63;3.30;;;;;;;;;;5000014;28;20513;-87
2021/09/29 12:11:49;;;;;;;4.57;3.40;;;;;;;;;;4998668;28;20439;-87
2021/09/29 12:14:17;;;;;;;5.70;3.90;;;;;;;;;;5001430;28;20423;-87
2021/09/29 12:16:45;;;;;;;6.05;3.75;;;;;;;;;;5001372;28;20423;-87
2021/09/29 12:19:20;;;;;;;4.30;3.90;;;;;;;;;;4997339;28;20399;-86
2021/09/29 12:21:49;;;;;;;4.28;3.45;;;;;;;;;;5000218;28;20821;-87
2021/09/29 12:24:30;;;;;;;3.70;3.30;;;;;;;;;;4994686;28;20920;-86
2021/09/29 12:26:58;;;;;;;5.15;3.42;;;;;;;;;;5000399;28;20407;-87
2021/09/29 12:29:33;;;;;;;4.50;3.60;;;;;;;;;;4993299;28;20895;-87
2021/09/29 12:32:17;;;;;;;4.40;4.00;;;;;;;;;;4993589;28;21216;-87
2021/09/29 12:35:02;;;;;;;5.32;3.97;;;;;;;;;;4998034;28;21010;-88
2021/09/29 12:37:28;;;;;;;4.22;3.60;;;;;;;;;;4995712;28;20430;-87
2021/09/29 12:39:58;;;;;;;3.75;3.45;;;;;;;;;;4999572;28;20408;-87
2021/09/29 12:42:31;;;;;;;6.20;4.18;;;;;;;;;;4990975;28;20424;-87
2021/09/29 12:44:59;;;;;;;4.45;3.90;;;;;;;;;;4997585;28;20777;-88
2021/09/29 12:47:36;;;;;;;5.90;4.55;;;;;;;;;;4995821;28;20395;-87
2021/09/29 12:50:10;;;;;;;6.07;4.30;;;;;;;;;;5000222;28;20888;-88
2021/09/29 12:52:38;;;;;;;5.25;4.10;;;;;;;;;;4996980;28;20427;-87
2021/09/29 12:55:07;;;;;;;4.00;3.60;;;;;;;;;;4993469;28;20476;-88
2021/09/29 12:57:34;;;;;;;4.20;3.80;;;;;;;;;;4993277;28;20473;-87
2021/09/29 13:00:01;;;;;;;4.47;3.58;;;;;;;;;;4999459;28;20464;-87
2021/09/29 13:02:28;;;;;;;3.70;3.40;;;;;;;;;;4996882;28;20463;-87
2021/09/29 13:04:55;;;;;;;4.20;3.42;;;;;;;;;;4995593;28;20431;-87
2021/09/29 13:07:22;;;;;;;4.07;3.63;;;;;;;;;;4991971;28;20411;-87
2021/09/29 13:09:49;;;;;;;4.80;3.70;;;;;;;;;;4999306;28;20403;-87
2021/09/29 13:12:17;;;;;;;4.50;3.50;;;;;;;;;;4996246;28;20814;-88
2021/09/29 13:14:44;;;;;;;3.50;3.20;;;;;;;;;;4995457;28;20445;-87
2021/09/29 13:17:11;;;;;;;4.07;3.67;;;;;;;;;;4995509;28;20419;-87
2021/09/29 13:19:42;;;;;;;4.00;3.70;;;;;;;;;;5002108;28;20885;-87
2021/09/29 13:22:17;;;;;;;4.33;3.50;;;;;;;;;;4999636;28;20412;-87
2021/09/29 13:35:06;;;;;;;6.00;4.10;;;;;;;;;;4967320;28;20552;-87
2021/09/29 13:38:43;;;;;;;5.03;3.90;;;;;;;;;;4996198;28;20412;-87
2021/09/29 13:41:10;;;;;;;4.90;3.60;;;;;;;;;;4991907;28;20428;-88
2021/09/29 13:43:38;;;;;;;4.20;3.70;;;;;;;;;;4996955;28;20409;-87
2021/09/29 13:46:07;;;;;;;4.47;3.50;;;;;;;;;;4996059;28;20457;-88
2021/09/29 13:48:34;;;;;;;3.92;3.58;;;;;;;;;;4998435;28;20407;-87
2021/09/29 13:51:01;;;;;;;5.30;3.85;;;;;;;;;;4994590;28;20500;-87
2021/09/29 13:53:29;;;;;;;4.25;3.85;;;;;;;;;;4998173;28;20409;-87
2021/09/29 13:55:58;;;;;;;3.92;3.45;;;;;;;;;;4998884;28;20761;-86
2021/09/29 13:58:39;;;;;;;4.80;3.85;;;;;;;;;;4992259;28;21174;-87
2021/09/29 14:28:51;;;;;;;4.53;4.10;;;;;;;;;;4999358;28;20951;-88
2021/09/29 14:31:22;;;;;;;4.20;3.80;;;;;;;;;;5000066;28;20405;-86
2021/09/29 14:33:51;;;;;;;4.15;3.75;;;;;;;;;;5000435;28;20417;-86
2021/09/29 14:36:18;;;;;;;7.30;4.20;;;;;;;;;;5000861;28;20501;-87
2021/09/29 14:38:46;;;;;;;4.57;4.18;;;;;;;;;;4999778;28;20414;-84
2021/09/29 14:41:13;;;;;;;4.88;4.03;;;;;;;;;;5000706;28;20426;-88
2021/09/29 14:43:40;;;;;;;4.25;3.83;;;;;;;;;;5015966;23;20419;-83
2021/09/29 14:46:08;;;;;;;4.18;3.78;;;;;;;;;;4999713;28;20438;-83
2021/09/29 14:48:35;;;;;;;6.03;3.90;;;;;;;;;;5000570;28;20407;-84
2021/09/29 14:51:06;;;;;;;6.45;4.20;;;;;;;;;;4997538;28;20405;-84
2021/09/29 14:53:34;;;;;;;6.35;4.05;;;;;;;;;;4999812;28;20490;-84
2021/09/29 14:56:01;;;;;;;4.93;4.22;;;;;;;;;;5003442;28;20425;-83
2021/09/29 14:58:28;;;;;;;4.93;4.50;;;;;;;;;;5000129;28;20482;-85
2021/09/29 15:00:55;;;;;;;5.00;4.50;;;;;;;;;;4995538;28;20424;-83
2021/09/29 15:03:23;;;;;;;6.50;4.90;;;;;;;;;;4991502;28;20433;-84
2021/09/29 15:05:50;;;;;;;5.97;4.63;;;;;;;;;;4990868;28;20419;-84
2021/09/29 15:08:20;;;;;;;6.00;4.80;;;;;;;;;;5002546;28;20397;-84
2021/09/29 15:10:47;;;;;;;5.85;4.72;;;;;;;;;;4999897;28;20495;-82
2021/09/29 15:13:16;;;;;;;6.13;4.95;;;;;;;;;;5005024;28;20383;-82
2021/09/29 15:15:50;;;;;;;5.93;4.90;;;;;;;;;;5005412;28;20506;-83
2021/09/29 15:18:21;;;;;;;5.72;5.13;;;;;;;;;;5000486;28;20424;-82
2021/09/29 15:21:07;;;;;;;5.97;4.57;;;;;;;;;;5006925;28;20453;-83
2021/09/29 15:23:56;;;;;;;8.07;5.03;;;;;;;;;;5011763;28;20487;-84
2021/09/29 15:32:33;;;;;;;6.07;5.30;;;;;;;;;;4971118;28;20393;-84
2021/09/29 15:48:47;;;;;;;7.82;6.00;;;;;;;;;;4986477;28;20469;-84
2021/09/29 15:51:17;;;;;;;8.68;5.97;;;;;;;;;;4991109;28;20418;-84
2021/09/29 15:56:40;;;;;;;6.65;5.50;;;;;;;;;;4987979;28;20494;-83
2021/09/29 16:01:52;;;;;;;6.10;5.10;;;;;;;;;;4993657;28;20979;-83
2021/09/29 16:04:25;;;;;;;7.27;5.23;;;;;;;;;;4997166;28;20463;-82
2021/09/29 16:07:00;;;;;;;6.32;5.43;;;;;;;;;;4998572;28;20443;-83
2021/09/29 16:12:57;;;;;;;5.90;5.05;;;;;;;;;;4995996;28;20399;-83
2021/09/29 16:29:57;;;;;;;5.75;5.00;;;;;;;;;;4987878;28;21198;-84
2021/09/29 16:32:41;;;;;;;6.57;5.30;;;;;;;;;;4998243;28;20410;-83
2021/09/29 16:35:14;;;;;;;7.75;5.38;;;;;;;;;;4991203;28;20869;-83
2021/09/29 16:37:40;;;;;;;8.60;5.47;;;;;;;;;;4993644;28;20415;-83
2021/09/29 16:40:08;;;;;;;9.13;5.40;;;;;;;;;;4996557;28;20405;-83
2021/09/29 16:42:35;;;;;;;8.50;5.50;;;;;;;;;;4995230;28;20907;-82
2021/09/29 16:45:06;;;;;;;7.75;5.78;;;;;;;;;;4998495;28;20416;-84
2021/09/29 16:47:34;;;;;;;7.90;5.25;;;;;;;;;;4998455;28;20872;-83
2021/09/29 16:50:01;;;;;;;8.35;5.57;;;;;;;;;;4993827;28;20487;-84
2021/09/29 16:52:38;;;;;;;9.20;5.25;;;;;;;;;;4993236;28;20812;-84
2021/09/29 16:55:07;;;;;;;8.25;5.65;;;;;;;;;;4997960;28;20938;-85
2021/09/29 16:57:36;;;;;;;5.95;4.90;;;;;;;;;;4997640;28;20427;-84
2021/09/29 17:00:08;;;;;;;5.95;5.40;;;;;;;;;;5003290;28;20407;-83
2021/09/29 17:02:35;;;;;;;6.03;5.13;;;;;;;;;;4996586;28;20436;-83
2021/09/29 17:05:02;;;;;;;7.70;5.10;;;;;;;;;;4997062;28;20441;-84
2021/09/29 17:07:29;;;;;;;6.22;5.15;;;;;;;;;;4998302;28;20421;-83
2021/09/29 17:09:56;;;;;;;5.90;4.97;;;;;;;;;;4996864;28;20414;-83
2021/09/29 17:12:24;;;;;;;8.75;5.13;;;;;;;;;;4993245;28;20933;-83
2021/09/29 17:14:51;;;;;;;9.40;5.35;;;;;;;;;;4994605;28;20424;-84
2021/09/29 17:17:19;;;;;;;9.23;6.35;;;;;;;;;;4994351;28;20428;-84
2021/09/29 17:19:46;;;;;;;8.82;6.03;;;;;;;;;;4997031;28;20407;-83
2021/09/29 17:22:14;;;;;;;9.30;6.70;;;;;;;;;;4994184;28;20408;-84
2021/09/29 17:24:42;;;;;;;11.57;7.80;;;;;;;;;;5002307;28;21214;-84
2021/09/29 17:27:10;;;;;;;11.75;7.80;;;;;;;;;;4995178;28;20436;-84
2021/09/29 17:29:37;;;;;;;12.55;8.82;;;;;;;;;;4999754;28;20499;-85
2021/09/29 17:32:06;;;;;;;16.48;9.77;;;;;;;;;;4997623;28;20424;-83
2021/09/29 17:34:42;;;;;;;11.80;9.27;;;;;;;;;;4986867;28;20411;-83
2021/09/29 17:48:12;;;;;;;13.10;10.23;;;;;;;;;;4994146;28;20446;-84
2021/09/29 17:53:26;;;;;;;15.00;11.98;;;;;;;;;;4993969;28;20400;-84
2021/09/29 17:55:53;;;;;;;16.40;12.05;;;;;;;;;;4998350;28;20435;-84